ePrivacy and GPDR Cookie Consent by Cookie Consent
EmailTwitter


Observations de surface / Royaume-Uni / EGLL (03772)

Régions: Québec | Canada | États-Unis | Europe | France | UK | Ailleurs
Station
Affichage
Infos & localisation pour EGLL (03772) | Aide pour décoder les METARs

Observations prises le 2022-12-03 à 19H20 UTC à LONDON/HEATHROW, UK (EGLL)

Etat du ciel: partiellement nuageux.

Température: 6.0 Celsius

Point de rosée: 2.0 Celsius

Humidité relative: 76%

Facteur vent 3.

Vents: Nord-est à 15 km/h ou 8 noeuds.

Pression au niveau moyen de la mer: 101.70 kilopascals.

Visibilité horizontale: 6.21 milles terrestres ou 9.94 kilomètres.

Hauteur du plafond: 640 mètres ( 2100 pieds ).

Observation METAR:

EGLL 031920Z AUTO 06008KT 9999 BKN021 BKN034 06/02 Q1017 NOSIG=